sensor_id;sensor_type;location;lat;lon;timestamp;temperature;humidity
22680;DHT22;11507;44.858;10.374;2023-07-13T00:00:29;25.10;99.90
22680;DHT22;11507;44.858;10.374;2023-07-13T00:02:58;25.00;99.90
22680;DHT22;11507;44.858;10.374;2023-07-13T00:05:24;25.00;99.90
22680;DHT22;11507;44.858;10.374;2023-07-13T00:07:51;25.00;99.90
22680;DHT22;11507;44.858;10.374;2023-07-13T00:10:24;25.00;99.90
22680;DHT22;11507;44.858;10.374;2023-07-13T00:12:52;24.90;99.90
22680;DHT22;11507;44.858;10.374;2023-07-13T00:15:25;24.80;99.90
22680;DHT22;11507;44.858;10.374;2023-07-13T00:17:53;24.70;99.90
22680;DHT22;11507;44.858;10.374;2023-07-13T00:20:22;24.70;99.90
22680;DHT22;11507;44.858;10.374;2023-07-13T00:22:49;24.60;99.90
22680;DHT22;11507;44.858;10.374;2023-07-13T00:25:15;24.60;99.90
22680;DHT22;11507;44.858;10.374;2023-07-13T00:27:44;24.50;99.90
22680;DHT22;11507;44.858;10.374;2023-07-13T00:30:12;24.40;99.90
22680;DHT22;11507;44.858;10.374;2023-07-13T00:32:38;24.40;99.90
22680;DHT22;11507;44.858;10.374;2023-07-13T00:35:06;24.30;99.90
22680;DHT22;11507;44.858;10.374;2023-07-13T00:37:37;24.20;99.90
22680;DHT22;11507;44.858;10.374;2023-07-13T00:40:04;24.10;99.90
22680;DHT22;11507;44.858;10.374;2023-07-13T00:42:31;24.10;99.90
22680;DHT22;11507;44.858;10.374;2023-07-13T00:45:07;24.00;99.90
22680;DHT22;11507;44.858;10.374;2023-07-13T00:47:33;23.80;99.90
22680;DHT22;11507;44.858;10.374;2023-07-13T00:50:01;23.70;99.90
22680;DHT22;11507;44.858;10.374;2023-07-13T00:52:28;23.70;99.90
22680;DHT22;11507;44.858;10.374;2023-07-13T00:54:57;23.50;99.90
22680;DHT22;11507;44.858;10.374;2023-07-13T00:57:26;23.40;99.90
22680;DHT22;11507;44.858;10.374;2023-07-13T00:59:55;23.40;99.90
22680;DHT22;11507;44.858;10.374;2023-07-13T01:02:29;23.30;99.90
22680;DHT22;11507;44.858;10.374;2023-07-13T01:04:56;23.20;99.90
22680;DHT22;11507;44.858;10.374;2023-07-13T01:07:22;23.10;99.90
22680;DHT22;11507;44.858;10.374;2023-07-13T01:09:48;23.10;99.90
22680;DHT22;11507;44.858;10.374;2023-07-13T01:12:15;23.10;99.90
22680;DHT22;11507;44.858;10.374;2023-07-13T01:14:41;23.10;99.90
22680;DHT22;11507;44.858;10.374;2023-07-13T01:17:12;23.10;99.90
22680;DHT22;11507;44.858;10.374;2023-07-13T01:19:47;22.90;99.90
22680;DHT22;11507;44.858;10.374;2023-07-13T01:22:16;22.80;99.90
22680;DHT22;11507;44.858;10.374;2023-07-13T01:24:45;22.80;99.90
22680;DHT22;11507;44.858;10.374;2023-07-13T01:27:19;22.60;99.90
22680;DHT22;11507;44.858;10.374;2023-07-13T01:29:46;22.60;99.90
22680;DHT22;11507;44.858;10.374;2023-07-13T01:32:16;22.60;99.90
22680;DHT22;11507;44.858;10.374;2023-07-13T01:34:52;22.50;99.90
22680;DHT22;11507;44.858;10.374;2023-07-13T01:37:23;22.40;99.90
22680;DHT22;11507;44.858;10.374;2023-07-13T01:39:51;22.40;99.90
22680;DHT22;11507;44.858;10.374;2023-07-13T01:42:18;22.30;99.90
22680;DHT22;11507;44.858;10.374;2023-07-13T01:44:44;22.30;99.90
22680;DHT22;11507;44.858;10.374;2023-07-13T01:47:13;22.30;99.90
22680;DHT22;11507;44.858;10.374;2023-07-13T01:49:39;22.30;99.90
22680;DHT22;11507;44.858;10.374;2023-07-13T01:52:09;22.30;99.90
22680;DHT22;11507;44.858;10.374;2023-07-13T01:54:38;22.20;99.90
22680;DHT22;11507;44.858;10.374;2023-07-13T01:57:04;22.20;99.90
22680;DHT22;11507;44.858;10.374;2023-07-13T01:59:32;22.20;99.90
22680;DHT22;11507;44.858;10.374;2023-07-13T02:02:01;22.20;99.90
22680;DHT22;11507;44.858;10.374;2023-07-13T02:04:28;22.20;99.90
22680;DHT22;11507;44.858;10.374;2023-07-13T02:06:54;22.10;99.90
22680;DHT22;11507;44.858;10.374;2023-07-13T02:09:21;22.10;99.90
22680;DHT22;11507;44.858;10.374;2023-07-13T02:11:48;22.00;99.90
22680;DHT22;11507;44.858;10.374;2023-07-13T02:14:16;22.00;99.90
22680;DHT22;11507;44.858;10.374;2023-07-13T02:16:42;22.00;99.90
22680;DHT22;11507;44.858;10.374;2023-07-13T02:19:10;21.90;99.90
22680;DHT22;11507;44.858;10.374;2023-07-13T02:21:36;22.00;99.90
22680;DHT22;11507;44.858;10.374;2023-07-13T02:24:02;22.00;99.90
22680;DHT22;11507;44.858;10.374;2023-07-13T02:26:28;22.00;99.90
22680;DHT22;11507;44.858;10.374;2023-07-13T02:28:54;22.00;99.90
22680;DHT22;11507;44.858;10.374;2023-07-13T02:31:21;22.00;99.90
22680;DHT22;11507;44.858;10.374;2023-07-13T02:33:47;22.00;99.90
22680;DHT22;11507;44.858;10.374;2023-07-13T02:36:13;21.90;99.90
22680;DHT22;11507;44.858;10.374;2023-07-13T02:38:44;22.00;99.90
22680;DHT22;11507;44.858;10.374;2023-07-13T02:41:12;21.90;99.90
22680;DHT22;11507;44.858;10.374;2023-07-13T02:43:39;21.90;99.90
22680;DHT22;11507;44.858;10.374;2023-07-13T02:46:09;21.80;99.90
22680;DHT22;11507;44.858;10.374;2023-07-13T02:48:39;21.80;99.90
22680;DHT22;11507;44.858;10.374;2023-07-13T02:51:09;21.80;99.90
22680;DHT22;11507;44.858;10.374;2023-07-13T02:53:35;21.80;99.90
22680;DHT22;11507;44.858;10.374;2023-07-13T02:56:03;21.80;99.90
22680;DHT22;11507;44.858;10.374;2023-07-13T02:58:31;21.80;99.90
22680;DHT22;11507;44.858;10.374;2023-07-13T03:00:57;21.70;99.90
22680;DHT22;11507;44.858;10.374;2023-07-13T03:03:23;21.60;99.90
22680;DHT22;11507;44.858;10.374;2023-07-13T03:05:59;21.60;99.90
22680;DHT22;11507;44.858;10.374;2023-07-13T03:08:29;21.50;99.90
22680;DHT22;11507;44.858;10.374;2023-07-13T03:11:02;21.50;99.90
22680;DHT22;11507;44.858;10.374;2023-07-13T03:13:31;21.50;99.90
22680;DHT22;11507;44.858;10.374;2023-07-13T03:15:58;21.40;99.90
22680;DHT22;11507;44.858;10.374;2023-07-13T03:18:26;21.40;99.90
22680;DHT22;11507;44.858;10.374;2023-07-13T03:20:54;21.30;99.90
22680;DHT22;11507;44.858;10.374;2023-07-13T03:23:24;21.30;99.90
22680;DHT22;11507;44.858;10.374;2023-07-13T03:26:04;21.20;99.90
22680;DHT22;11507;44.858;10.374;2023-07-13T03:28:36;21.20;99.90
22680;DHT22;11507;44.858;10.374;2023-07-13T03:31:07;21.10;99.90
22680;DHT22;11507;44.858;10.374;2023-07-13T03:33:36;21.10;99.90
22680;DHT22;11507;44.858;10.374;2023-07-13T03:36:11;21.00;99.90
22680;DHT22;11507;44.858;10.374;2023-07-13T03:38:39;21.00;99.90
22680;DHT22;11507;44.858;10.374;2023-07-13T03:41:09;21.00;99.90
22680;DHT22;11507;44.858;10.374;2023-07-13T03:43:36;21.00;99.90
22680;DHT22;11507;44.858;10.374;2023-07-13T03:46:09;21.00;99.90
22680;DHT22;11507;44.858;10.374;2023-07-13T03:48:35;21.10;99.90
22680;DHT22;11507;44.858;10.374;2023-07-13T03:51:01;21.00;99.90
22680;DHT22;11507;44.858;10.374;2023-07-13T03:53:29;21.00;99.90
22680;DHT22;11507;44.858;10.374;2023-07-13T03:55:55;20.90;99.90
22680;DHT22;11507;44.858;10.374;2023-07-13T03:58:39;20.90;99.90
22680;DHT22;11507;44.858;10.374;2023-07-13T04:01:18;20.90;99.90
22680;DHT22;11507;44.858;10.374;2023-07-13T04:03:45;20.80;99.90
22680;DHT22;11507;44.858;10.374;2023-07-13T04:06:49;20.80;99.90
22680;DHT22;11507;44.858;10.374;2023-07-13T04:09:12;20.70;99.90
22680;DHT22;11507;44.858;10.374;2023-07-13T04:11:40;20.70;99.90
22680;DHT22;11507;44.858;10.374;2023-07-13T04:14:06;20.80;99.90
22680;DHT22;11507;44.858;10.374;2023-07-13T04:16:36;20.80;99.90
22680;DHT22;11507;44.858;10.374;2023-07-13T04:19:02;20.80;99.90
22680;DHT22;11507;44.858;10.374;2023-07-13T04:21:34;20.90;99.90
22680;DHT22;11507;44.858;10.374;2023-07-13T04:24:00;21.00;99.90
22680;DHT22;11507;44.858;10.374;2023-07-13T04:26:26;21.10;99.90
22680;DHT22;11507;44.858;10.374;2023-07-13T04:28:53;21.30;99.90
22680;DHT22;11507;44.858;10.374;2023-07-13T04:31:19;21.40;99.90
22680;DHT22;11507;44.858;10.374;2023-07-13T04:33:46;21.50;99.90
22680;DHT22;11507;44.858;10.374;2023-07-13T04:36:12;21.70;99.90
22680;DHT22;11507;44.858;10.374;2023-07-13T04:38:38;21.70;99.90
22680;DHT22;11507;44.858;10.374;2023-07-13T04:41:05;21.90;99.90
22680;DHT22;11507;44.858;10.374;2023-07-13T04:43:32;22.00;99.90
22680;DHT22;11507;44.858;10.374;2023-07-13T04:46:08;22.10;99.90
22680;DHT22;11507;44.858;10.374;2023-07-13T04:48:35;22.20;99.90
22680;DHT22;11507;44.858;10.374;2023-07-13T04:51:01;22.30;99.90
22680;DHT22;11507;44.858;10.374;2023-07-13T04:53:28;22.30;99.90
22680;DHT22;11507;44.858;10.374;2023-07-13T04:55:54;22.40;99.90
22680;DHT22;11507;44.858;10.374;2023-07-13T04:58:21;22.40;99.90
22680;DHT22;11507;44.858;10.374;2023-07-13T05:00:48;22.40;99.90
22680;DHT22;11507;44.858;10.374;2023-07-13T05:03:17;22.50;99.90
22680;DHT22;11507;44.858;10.374;2023-07-13T05:05:58;22.40;99.90
22680;DHT22;11507;44.858;10.374;2023-07-13T05:08:24;22.50;99.90
22680;DHT22;11507;44.858;10.374;2023-07-13T05:10:51;22.50;99.90
22680;DHT22;11507;44.858;10.374;2023-07-13T05:13:21;22.50;99.90
22680;DHT22;11507;44.858;10.374;2023-07-13T05:16:07;22.50;99.90
22680;DHT22;11507;44.858;10.374;2023-07-13T05:18:34;22.50;99.90
22680;DHT22;11507;44.858;10.374;2023-07-13T05:21:01;22.50;99.90
22680;DHT22;11507;44.858;10.374;2023-07-13T05:23:27;22.60;99.90
22680;DHT22;11507;44.858;10.374;2023-07-13T05:25:55;22.70;99.90
22680;DHT22;11507;44.858;10.374;2023-07-13T05:28:21;22.70;99.90
22680;DHT22;11507;44.858;10.374;2023-07-13T05:30:50;22.80;99.90
22680;DHT22;11507;44.858;10.374;2023-07-13T05:33:18;22.90;99.90
22680;DHT22;11507;44.858;10.374;2023-07-13T05:35:44;23.10;99.90
22680;DHT22;11507;44.858;10.374;2023-07-13T05:38:10;23.20;99.90
22680;DHT22;11507;44.858;10.374;2023-07-13T05:40:37;23.30;99.90
22680;DHT22;11507;44.858;10.374;2023-07-13T05:43:05;23.40;99.90
22680;DHT22;11507;44.858;10.374;2023-07-13T05:45:30;23.50;99.90
22680;DHT22;11507;44.858;10.374;2023-07-13T05:47:56;23.60;99.90
22680;DHT22;11507;44.858;10.374;2023-07-13T05:50:29;23.60;99.90
22680;DHT22;11507;44.858;10.374;2023-07-13T05:52:55;23.50;99.90
22680;DHT22;11507;44.858;10.374;2023-07-13T05:55:22;23.50;99.90
22680;DHT22;11507;44.858;10.374;2023-07-13T05:57:48;23.50;99.90
22680;DHT22;11507;44.858;10.374;2023-07-13T06:00:17;23.50;99.90
22680;DHT22;11507;44.858;10.374;2023-07-13T06:02:46;23.40;99.90
22680;DHT22;11507;44.858;10.374;2023-07-13T06:05:12;23.40;99.90
22680;DHT22;11507;44.858;10.374;2023-07-13T06:07:40;23.40;99.90
22680;DHT22;11507;44.858;10.374;2023-07-13T06:10:06;23.30;99.90
22680;DHT22;11507;44.858;10.374;2023-07-13T06:12:32;23.30;99.90
22680;DHT22;11507;44.858;10.374;2023-07-13T06:14:58;23.20;99.90
22680;DHT22;11507;44.858;10.374;2023-07-13T06:17:24;23.20;99.90
22680;DHT22;11507;44.858;10.374;2023-07-13T06:19:50;23.20;99.90
22680;DHT22;11507;44.858;10.374;2023-07-13T06:22:22;23.20;99.90
22680;DHT22;11507;44.858;10.374;2023-07-13T06:24:48;23.20;99.90
22680;DHT22;11507;44.858;10.374;2023-07-13T06:27:16;23.20;99.90
22680;DHT22;11507;44.858;10.374;2023-07-13T06:29:42;23.20;99.90
22680;DHT22;11507;44.858;10.374;2023-07-13T06:32:10;23.20;99.90
22680;DHT22;11507;44.858;10.374;2023-07-13T06:34:36;23.10;99.90
22680;DHT22;11507;44.858;10.374;2023-07-13T06:37:10;23.20;99.90
22680;DHT22;11507;44.858;10.374;2023-07-13T06:39:36;23.10;99.90
22680;DHT22;11507;44.858;10.374;2023-07-13T06:42:02;23.00;99.90
22680;DHT22;11507;44.858;10.374;2023-07-13T06:44:30;23.00;99.90
22680;DHT22;11507;44.858;10.374;2023-07-13T06:46:56;23.00;99.90
22680;DHT22;11507;44.858;10.374;2023-07-13T06:49:22;23.00;99.90
22680;DHT22;11507;44.858;10.374;2023-07-13T06:51:48;22.90;99.90
22680;DHT22;11507;44.858;10.374;2023-07-13T06:54:15;22.90;99.90
22680;DHT22;11507;44.858;10.374;2023-07-13T06:56:41;22.80;99.90
22680;DHT22;11507;44.858;10.374;2023-07-13T06:59:07;22.70;99.90
22680;DHT22;11507;44.858;10.374;2023-07-13T07:01:35;22.60;99.90
22680;DHT22;11507;44.858;10.374;2023-07-13T07:04:02;22.60;99.90
22680;DHT22;11507;44.858;10.374;2023-07-13T07:06:28;22.50;99.90
22680;DHT22;11507;44.858;10.374;2023-07-13T07:08:54;22.50;99.90
22680;DHT22;11507;44.858;10.374;2023-07-13T07:11:23;22.50;99.90
22680;DHT22;11507;44.858;10.374;2023-07-13T07:13:51;22.40;99.90
22680;DHT22;11507;44.858;10.374;2023-07-13T07:16:18;22.40;99.90
22680;DHT22;11507;44.858;10.374;2023-07-13T07:18:45;22.40;99.90
22680;DHT22;11507;44.858;10.374;2023-07-13T07:21:11;22.50;99.90
22680;DHT22;11507;44.858;10.374;2023-07-13T07:23:37;22.50;99.90
22680;DHT22;11507;44.858;10.374;2023-07-13T07:26:03;22.40;99.90
22680;DHT22;11507;44.858;10.374;2023-07-13T07:28:29;22.40;99.90
22680;DHT22;11507;44.858;10.374;2023-07-13T07:30:58;22.40;99.90
22680;DHT22;11507;44.858;10.374;2023-07-13T07:33:26;22.30;99.90
22680;DHT22;11507;44.858;10.374;2023-07-13T07:35:54;22.30;99.90
22680;DHT22;11507;44.858;10.374;2023-07-13T07:38:19;22.30;99.90
22680;DHT22;11507;44.858;10.374;2023-07-13T07:40:52;22.30;99.90
22680;DHT22;11507;44.858;10.374;2023-07-13T07:43:19;22.30;99.90
22680;DHT22;11507;44.858;10.374;2023-07-13T07:45:45;22.20;99.90
22680;DHT22;11507;44.858;10.374;2023-07-13T07:48:17;22.20;99.90
22680;DHT22;11507;44.858;10.374;2023-07-13T07:50:44;22.20;99.90
22680;DHT22;11507;44.858;10.374;2023-07-13T07:53:10;22.10;99.90
22680;DHT22;11507;44.858;10.374;2023-07-13T07:55:37;22.10;99.90
22680;DHT22;11507;44.858;10.374;2023-07-13T07:58:04;22.10;99.90
22680;DHT22;11507;44.858;10.374;2023-07-13T08:00:30;22.10;99.90
22680;DHT22;11507;44.858;10.374;2023-07-13T08:03:01;22.10;99.90
22680;DHT22;11507;44.858;10.374;2023-07-13T08:05:28;22.10;99.90
22680;DHT22;11507;44.858;10.374;2023-07-13T08:07:56;22.10;99.90
22680;DHT22;11507;44.858;10.374;2023-07-13T08:10:22;22.10;99.90
22680;DHT22;11507;44.858;10.374;2023-07-13T08:12:50;22.00;99.90
22680;DHT22;11507;44.858;10.374;2023-07-13T08:15:19;22.00;99.90
22680;DHT22;11507;44.858;10.374;2023-07-13T08:17:49;22.00;99.90
22680;DHT22;11507;44.858;10.374;2023-07-13T08:20:16;22.00;99.90
22680;DHT22;11507;44.858;10.374;2023-07-13T08:22:42;21.80;99.90
22680;DHT22;11507;44.858;10.374;2023-07-13T08:25:08;21.90;99.90
22680;DHT22;11507;44.858;10.374;2023-07-13T08:27:36;21.90;99.90
22680;DHT22;11507;44.858;10.374;2023-07-13T08:30:06;21.90;99.90
22680;DHT22;11507;44.858;10.374;2023-07-13T08:32:35;21.90;99.90
22680;DHT22;11507;44.858;10.374;2023-07-13T08:35:03;21.80;99.90
22680;DHT22;11507;44.858;10.374;2023-07-13T08:37:30;21.80;99.90
22680;DHT22;11507;44.858;10.374;2023-07-13T08:39:59;21.90;99.90
22680;DHT22;11507;44.858;10.374;2023-07-13T08:47:41;22.00;99.90
22680;DHT22;11507;44.858;10.374;2023-07-13T08:50:14;22.00;99.90
22680;DHT22;11507;44.858;10.374;2023-07-13T08:52:41;22.00;99.90
22680;DHT22;11507;44.858;10.374;2023-07-13T08:55:20;22.00;99.90
22680;DHT22;11507;44.858;10.374;2023-07-13T08:57:53;22.00;99.90
22680;DHT22;11507;44.858;10.374;2023-07-13T09:00:22;22.00;99.90
22680;DHT22;11507;44.858;10.374;2023-07-13T09:02:57;22.10;99.90
22680;DHT22;11507;44.858;10.374;2023-07-13T09:05:38;22.10;99.90
22680;DHT22;11507;44.858;10.374;2023-07-13T09:11:23;22.30;99.90
22680;DHT22;11507;44.858;10.374;2023-07-13T09:14:06;22.40;99.90
22680;DHT22;11507;44.858;10.374;2023-07-13T09:16:41;22.60;99.90
22680;DHT22;11507;44.858;10.374;2023-07-13T09:19:11;22.80;99.90
22680;DHT22;11507;44.858;10.374;2023-07-13T09:21:42;22.90;99.90
22680;DHT22;11507;44.858;10.374;2023-07-13T09:26:58;23.30;99.90
22680;DHT22;11507;44.858;10.374;2023-07-13T09:29:31;23.80;99.90
22680;DHT22;11507;44.858;10.374;2023-07-13T09:32:06;24.60;99.90
22680;DHT22;11507;44.858;10.374;2023-07-13T09:34:34;25.50;99.90
22680;DHT22;11507;44.858;10.374;2023-07-13T09:37:01;26.40;99.90
22680;DHT22;11507;44.858;10.374;2023-07-13T09:39:37;26.90;99.90
22680;DHT22;11507;44.858;10.374;2023-07-13T09:47:21;27.80;99.90
22680;DHT22;11507;44.858;10.374;2023-07-13T09:50:04;28.00;99.90
22680;DHT22;11507;44.858;10.374;2023-07-13T09:52:47;27.90;99.90
22680;DHT22;11507;44.858;10.374;2023-07-13T09:55:38;27.90;99.90
22680;DHT22;11507;44.858;10.374;2023-07-13T10:00:57;28.80;99.90
22680;DHT22;11507;44.858;10.374;2023-07-13T10:03:29;29.20;99.90
22680;DHT22;11507;44.858;10.374;2023-07-13T10:06:17;29.70;99.90
22680;DHT22;11507;44.858;10.374;2023-07-13T10:08:45;30.00;99.90
22680;DHT22;11507;44.858;10.374;2023-07-13T10:11:21;30.10;99.90
22680;DHT22;11507;44.858;10.374;2023-07-13T10:14:00;30.10;99.90
22680;DHT22;11507;44.858;10.374;2023-07-13T10:16:36;30.70;99.90
22680;DHT22;11507;44.858;10.374;2023-07-13T10:19:26;31.10;99.90
22680;DHT22;11507;44.858;10.374;2023-07-13T10:22:01;31.20;99.90
22680;DHT22;11507;44.858;10.374;2023-07-13T10:24:33;31.50;98.90
22680;DHT22;11507;44.858;10.374;2023-07-13T10:27:20;31.90;99.70
22680;DHT22;11507;44.858;10.374;2023-07-13T10:32:59;32.50;99.40
22680;DHT22;11507;44.858;10.374;2023-07-13T10:35:27;32.90;97.10
22680;DHT22;11507;44.858;10.374;2023-07-13T10:38:01;33.20;96.20
22680;DHT22;11507;44.858;10.374;2023-07-13T10:40:57;33.40;97.60
22680;DHT22;11507;44.858;10.374;2023-07-13T10:43:37;33.80;94.70
22680;DHT22;11507;44.858;10.374;2023-07-13T10:46:06;34.00;94.30
22680;DHT22;11507;44.858;10.374;2023-07-13T10:48:35;34.10;94.30
22680;DHT22;11507;44.858;10.374;2023-07-13T10:51:05;34.10;92.80
22680;DHT22;11507;44.858;10.374;2023-07-13T10:53:34;33.80;92.60
22680;DHT22;11507;44.858;10.374;2023-07-13T10:58:41;33.60;93.40
22680;DHT22;11507;44.858;10.374;2023-07-13T11:01:11;33.60;94.70
22680;DHT22;11507;44.858;10.374;2023-07-13T11:13:59;35.30;92.00
22680;DHT22;11507;44.858;10.374;2023-07-13T11:16:42;35.60;91.10
22680;DHT22;11507;44.858;10.374;2023-07-13T11:24:59;35.30;92.40
22680;DHT22;11507;44.858;10.374;2023-07-13T11:27:46;35.60;89.10
22680;DHT22;11507;44.858;10.374;2023-07-13T11:35:49;35.80;91.80
22680;DHT22;11507;44.858;10.374;2023-07-13T11:41:17;36.60;90.80
22680;DHT22;11507;44.858;10.374;2023-07-13T11:43:45;37.00;88.20
22680;DHT22;11507;44.858;10.374;2023-07-13T11:46:23;37.40;85.30
22680;DHT22;11507;44.858;10.374;2023-07-13T11:48:50;37.40;88.20
22680;DHT22;11507;44.858;10.374;2023-07-13T11:51:33;37.60;82.70
22680;DHT22;11507;44.858;10.374;2023-07-13T11:54:05;37.80;85.10
22680;DHT22;11507;44.858;10.374;2023-07-13T11:56:38;37.80;85.80
22680;DHT22;11507;44.858;10.374;2023-07-13T11:59:12;37.50;81.30
22680;DHT22;11507;44.858;10.374;2023-07-13T12:01:46;37.80;84.00
22680;DHT22;11507;44.858;10.374;2023-07-13T12:07:07;38.50;80.80
22680;DHT22;11507;44.858;10.374;2023-07-13T12:09:42;38.90;77.50
22680;DHT22;11507;44.858;10.374;2023-07-13T12:12:17;38.80;76.80
22680;DHT22;11507;44.858;10.374;2023-07-13T12:14:44;38.50;78.70
22680;DHT22;11507;44.858;10.374;2023-07-13T12:17:21;38.30;81.40
22680;DHT22;11507;44.858;10.374;2023-07-13T12:19:57;38.60;78.30
22680;DHT22;11507;44.858;10.374;2023-07-13T12:22:23;38.90;80.60
22680;DHT22;11507;44.858;10.374;2023-07-13T12:24:52;39.20;78.70
22680;DHT22;11507;44.858;10.374;2023-07-13T12:27:29;39.50;78.70
22680;DHT22;11507;44.858;10.374;2023-07-13T12:30:27;39.70;71.40
22680;DHT22;11507;44.858;10.374;2023-07-13T12:33:11;39.40;73.10
22680;DHT22;11507;44.858;10.374;2023-07-13T12:35:47;39.20;76.80
22680;DHT22;11507;44.858;10.374;2023-07-13T12:38:17;39.30;71.40
22680;DHT22;11507;44.858;10.374;2023-07-13T12:40:44;38.90;70.00
22680;DHT22;11507;44.858;10.374;2023-07-13T12:43:21;38.60;72.30
22680;DHT22;11507;44.858;10.374;2023-07-13T12:46:18;38.90;75.70
22680;DHT22;11507;44.858;10.374;2023-07-13T12:48:53;38.90;75.50
22680;DHT22;11507;44.858;10.374;2023-07-13T12:51:25;39.00;75.10
22680;DHT22;11507;44.858;10.374;2023-07-13T12:54:11;39.50;72.80
22680;DHT22;11507;44.858;10.374;2023-07-13T12:56:38;40.10;72.40
22680;DHT22;11507;44.858;10.374;2023-07-13T12:59:05;40.20;70.70
22680;DHT22;11507;44.858;10.374;2023-07-13T13:01:34;40.60;69.80
22680;DHT22;11507;44.858;10.374;2023-07-13T13:04:04;40.70;70.90
22680;DHT22;11507;44.858;10.374;2023-07-13T13:06:32;41.10;68.30
22680;DHT22;11507;44.858;10.374;2023-07-13T13:08:59;41.10;66.90
22680;DHT22;11507;44.858;10.374;2023-07-13T13:11:28;41.20;65.40
22680;DHT22;11507;44.858;10.374;2023-07-13T13:13:56;40.90;66.60
22680;DHT22;11507;44.858;10.374;2023-07-13T13:16:29;41.20;66.80
22680;DHT22;11507;44.858;10.374;2023-07-13T13:19:22;41.20;66.50
22680;DHT22;11507;44.858;10.374;2023-07-13T13:21:48;41.40;67.10
22680;DHT22;11507;44.858;10.374;2023-07-13T13:24:22;41.70;65.60
22680;DHT22;11507;44.858;10.374;2023-07-13T13:26:58;41.80;62.00
22680;DHT22;11507;44.858;10.374;2023-07-13T13:29:28;41.90;61.80
22680;DHT22;11507;44.858;10.374;2023-07-13T13:31:57;41.90;61.60
22680;DHT22;11507;44.858;10.374;2023-07-13T13:34:24;41.70;62.60
22680;DHT22;11507;44.858;10.374;2023-07-13T13:36:52;41.20;63.40
22680;DHT22;11507;44.858;10.374;2023-07-13T13:39:36;41.20;62.70
22680;DHT22;11507;44.858;10.374;2023-07-13T13:42:03;41.30;63.70
22680;DHT22;11507;44.858;10.374;2023-07-13T13:44:31;41.70;63.40
22680;DHT22;11507;44.858;10.374;2023-07-13T13:46:58;41.70;60.90
22680;DHT22;11507;44.858;10.374;2023-07-13T13:49:25;41.70;63.80
22680;DHT22;11507;44.858;10.374;2023-07-13T13:52:00;41.90;63.10
22680;DHT22;11507;44.858;10.374;2023-07-13T13:54:27;41.70;62.60
22680;DHT22;11507;44.858;10.374;2023-07-13T13:56:53;41.10;61.10
22680;DHT22;11507;44.858;10.374;2023-07-13T13:59:22;40.60;63.20
22680;DHT22;11507;44.858;10.374;2023-07-13T14:01:49;40.00;65.50
22680;DHT22;11507;44.858;10.374;2023-07-13T14:04:18;39.40;65.80
22680;DHT22;11507;44.858;10.374;2023-07-13T14:06:45;38.70;65.60
22680;DHT22;11507;44.858;10.374;2023-07-13T14:09:14;38.00;66.90
22680;DHT22;11507;44.858;10.374;2023-07-13T14:11:42;37.40;70.20
22680;DHT22;11507;44.858;10.374;2023-07-13T14:14:16;36.90;70.70
22680;DHT22;11507;44.858;10.374;2023-07-13T14:16:43;36.50;72.00
22680;DHT22;11507;44.858;10.374;2023-07-13T14:19:13;36.20;75.60
22680;DHT22;11507;44.858;10.374;2023-07-13T14:21:40;36.00;75.80
22680;DHT22;11507;44.858;10.374;2023-07-13T14:24:08;35.80;76.10
22680;DHT22;11507;44.858;10.374;2023-07-13T14:26:38;35.70;75.40
22680;DHT22;11507;44.858;10.374;2023-07-13T14:29:15;35.80;76.20
22680;DHT22;11507;44.858;10.374;2023-07-13T14:31:43;35.80;76.30
22680;DHT22;11507;44.858;10.374;2023-07-13T14:34:11;35.80;75.10
22680;DHT22;11507;44.858;10.374;2023-07-13T14:36:43;36.00;78.50
22680;DHT22;11507;44.858;10.374;2023-07-13T14:39:16;36.30;78.70
22680;DHT22;11507;44.858;10.374;2023-07-13T14:41:44;36.90;74.30
22680;DHT22;11507;44.858;10.374;2023-07-13T14:44:30;37.10;73.30
22680;DHT22;11507;44.858;10.374;2023-07-13T14:47:01;37.00;73.00
22680;DHT22;11507;44.858;10.374;2023-07-13T14:49:43;37.00;73.20
22680;DHT22;11507;44.858;10.374;2023-07-13T14:52:18;37.20;72.80
22680;DHT22;11507;44.858;10.374;2023-07-13T14:54:47;37.10;72.90
22680;DHT22;11507;44.858;10.374;2023-07-13T14:57:16;37.00;72.20
22680;DHT22;11507;44.858;10.374;2023-07-13T14:59:43;36.80;74.30
22680;DHT22;11507;44.858;10.374;2023-07-13T15:02:32;36.40;74.40
22680;DHT22;11507;44.858;10.374;2023-07-13T15:04:58;36.50;76.20
22680;DHT22;11507;44.858;10.374;2023-07-13T15:07:25;36.80;74.60
22680;DHT22;11507;44.858;10.374;2023-07-13T15:09:51;37.50;74.10
22680;DHT22;11507;44.858;10.374;2023-07-13T15:12:18;37.90;74.30
22680;DHT22;11507;44.858;10.374;2023-07-13T15:14:45;38.20;71.70
22680;DHT22;11507;44.858;10.374;2023-07-13T15:17:25;38.40;71.50
22680;DHT22;11507;44.858;10.374;2023-07-13T15:19:57;38.60;68.30
22680;DHT22;11507;44.858;10.374;2023-07-13T15:22:25;38.40;67.60
22680;DHT22;11507;44.858;10.374;2023-07-13T15:24:54;38.30;70.40
22680;DHT22;11507;44.858;10.374;2023-07-13T15:27:24;38.50;71.40
22680;DHT22;11507;44.858;10.374;2023-07-13T15:29:50;38.90;72.10
22680;DHT22;11507;44.858;10.374;2023-07-13T15:32:21;39.40;69.80
22680;DHT22;11507;44.858;10.374;2023-07-13T15:34:53;39.30;68.40
22680;DHT22;11507;44.858;10.374;2023-07-13T15:37:19;39.20;69.10
22680;DHT22;11507;44.858;10.374;2023-07-13T15:39:47;39.30;69.00
22680;DHT22;11507;44.858;10.374;2023-07-13T15:42:16;39.30;66.50
22680;DHT22;11507;44.858;10.374;2023-07-13T15:44:44;39.00;68.60
22680;DHT22;11507;44.858;10.374;2023-07-13T15:47:15;38.80;68.20
22680;DHT22;11507;44.858;10.374;2023-07-13T15:49:42;38.80;68.00
22680;DHT22;11507;44.858;10.374;2023-07-13T15:52:19;38.60;68.30
22680;DHT22;11507;44.858;10.374;2023-07-13T15:54:48;38.30;68.70
22680;DHT22;11507;44.858;10.374;2023-07-13T15:57:17;37.90;69.60
22680;DHT22;11507;44.858;10.374;2023-07-13T15:59:43;37.60;70.20
22680;DHT22;11507;44.858;10.374;2023-07-13T16:02:22;37.50;71.90
22680;DHT22;11507;44.858;10.374;2023-07-13T16:04:49;37.60;71.60
22680;DHT22;11507;44.858;10.374;2023-07-13T16:07:17;37.90;72.70
22680;DHT22;11507;44.858;10.374;2023-07-13T16:09:44;38.00;69.80
22680;DHT22;11507;44.858;10.374;2023-07-13T16:12:16;38.20;69.90
22680;DHT22;11507;44.858;10.374;2023-07-13T16:14:44;38.50;69.70
22680;DHT22;11507;44.858;10.374;2023-07-13T16:17:11;38.50;68.30
22680;DHT22;11507;44.858;10.374;2023-07-13T16:19:37;38.50;66.70
22680;DHT22;11507;44.858;10.374;2023-07-13T16:22:04;38.40;68.70
22680;DHT22;11507;44.858;10.374;2023-07-13T16:24:31;38.20;71.30